sensor_id;sensor_type;location;lat;lon;timestamp;temperature;humidity
21666;DHT22;10994;45.486;9.190;2023-05-10T08:09:53;15.00;99.90
21666;DHT22;10994;45.486;9.190;2023-05-10T08:12:19;15.10;99.90
21666;DHT22;10994;45.486;9.190;2023-05-10T08:14:44;15.30;99.90
21666;DHT22;10994;45.486;9.190;2023-05-10T08:17:10;15.50;99.90
21666;DHT22;10994;45.486;9.190;2023-05-10T08:19:36;15.60;99.90
21666;DHT22;10994;45.486;9.190;2023-05-10T08:22:01;15.70;99.90
21666;DHT22;10994;45.486;9.190;2023-05-10T08:24:27;15.90;99.90
21666;DHT22;10994;45.486;9.190;2023-05-10T08:26:53;16.00;99.90
21666;DHT22;10994;45.486;9.190;2023-05-10T08:29:18;16.00;99.90
21666;DHT22;10994;45.486;9.190;2023-05-10T08:31:44;16.10;99.90
21666;DHT22;10994;45.486;9.190;2023-05-10T08:34:10;16.20;99.90
21666;DHT22;10994;45.486;9.190;2023-05-10T08:36:36;16.30;99.90
21666;DHT22;10994;45.486;9.190;2023-05-10T08:39:02;16.40;99.90
21666;DHT22;10994;45.486;9.190;2023-05-10T08:41:28;16.40;99.90
21666;DHT22;10994;45.486;9.190;2023-05-10T08:43:55;16.50;99.90
21666;DHT22;10994;45.486;9.190;2023-05-10T08:46:22;16.40;99.90
21666;DHT22;10994;45.486;9.190;2023-05-10T08:48:49;16.40;99.90
21666;DHT22;10994;45.486;9.190;2023-05-10T08:51:22;16.40;99.90
21666;DHT22;10994;45.486;9.190;2023-05-10T08:53:48;16.30;99.90
21666;DHT22;10994;45.486;9.190;2023-05-10T08:56:13;16.50;99.90
21666;DHT22;10994;45.486;9.190;2023-05-10T08:58:41;16.50;99.90
21666;DHT22;10994;45.486;9.190;2023-05-10T09:01:07;16.60;99.90
21666;DHT22;10994;45.486;9.190;2023-05-10T09:03:35;16.50;99.90
21666;DHT22;10994;45.486;9.190;2023-05-10T09:06:00;16.50;99.90
21666;DHT22;10994;45.486;9.190;2023-05-10T09:08:26;16.30;99.90
21666;DHT22;10994;45.486;9.190;2023-05-10T09:10:55;16.40;99.90
21666;DHT22;10994;45.486;9.190;2023-05-10T09:13:23;16.50;99.90
21666;DHT22;10994;45.486;9.190;2023-05-10T09:15:49;16.50;99.90
21666;DHT22;10994;45.486;9.190;2023-05-10T09:18:15;16.50;99.90
21666;DHT22;10994;45.486;9.190;2023-05-10T09:20:41;16.60;99.90
21666;DHT22;10994;45.486;9.190;2023-05-10T09:23:07;16.70;99.90
21666;DHT22;10994;45.486;9.190;2023-05-10T09:25:33;16.50;99.90
21666;DHT22;10994;45.486;9.190;2023-05-10T09:27:59;16.40;99.90
21666;DHT22;10994;45.486;9.190;2023-05-10T09:30:29;16.30;99.90
21666;DHT22;10994;45.486;9.190;2023-05-10T09:32:56;16.30;99.90
21666;DHT22;10994;45.486;9.190;2023-05-10T09:35:24;16.40;99.90
21666;DHT22;10994;45.486;9.190;2023-05-10T09:37:52;16.30;99.90
21666;DHT22;10994;45.486;9.190;2023-05-10T09:40:21;16.40;99.90
21666;DHT22;10994;45.486;9.190;2023-05-10T09:45:28;16.50;99.90
21666;DHT22;10994;45.486;9.190;2023-05-10T09:47:54;16.40;99.90
21666;DHT22;10994;45.486;9.190;2023-05-10T09:50:21;16.40;99.90
21666;DHT22;10994;45.486;9.190;2023-05-10T09:52:59;16.40;99.90
21666;DHT22;10994;45.486;9.190;2023-05-10T09:55:39;16.60;99.90
21666;DHT22;10994;45.486;9.190;2023-05-10T09:58:06;16.70;99.90
21666;DHT22;10994;45.486;9.190;2023-05-10T10:00:37;16.80;99.90
21666;DHT22;10994;45.486;9.190;2023-05-10T10:03:03;16.70;99.90
21666;DHT22;10994;45.486;9.190;2023-05-10T10:05:33;16.60;99.90
21666;DHT22;10994;45.486;9.190;2023-05-10T10:08:02;16.50;99.90
21666;DHT22;10994;45.486;9.190;2023-05-10T10:10:29;16.40;99.90
21666;DHT22;10994;45.486;9.190;2023-05-10T10:12:55;16.30;99.90
21666;DHT22;10994;45.486;9.190;2023-05-10T10:15:22;16.50;99.90
21666;DHT22;10994;45.486;9.190;2023-05-10T10:17:49;16.50;99.90
21666;DHT22;10994;45.486;9.190;2023-05-10T10:20:16;16.70;99.90
21666;DHT22;10994;45.486;9.190;2023-05-10T10:22:42;16.70;99.90
21666;DHT22;10994;45.486;9.190;2023-05-10T10:25:12;16.70;99.90
21666;DHT22;10994;45.486;9.190;2023-05-10T10:33:10;16.80;99.90
21666;DHT22;10994;45.486;9.190;2023-05-10T10:35:39;16.70;99.90
21666;DHT22;10994;45.486;9.190;2023-05-10T10:38:08;16.60;99.90
21666;DHT22;10994;45.486;9.190;2023-05-10T10:40:34;16.80;99.90
21666;DHT22;10994;45.486;9.190;2023-05-10T10:43:22;16.70;99.90
21666;DHT22;10994;45.486;9.190;2023-05-10T10:46:12;16.60;99.90
21666;DHT22;10994;45.486;9.190;2023-05-10T10:48:39;16.20;99.90
21666;DHT22;10994;45.486;9.190;2023-05-10T10:51:05;16.00;99.90
21666;DHT22;10994;45.486;9.190;2023-05-10T10:53:32;16.00;99.90
21666;DHT22;10994;45.486;9.190;2023-05-10T10:56:09;16.10;99.90
21666;DHT22;10994;45.486;9.190;2023-05-10T10:58:39;16.30;99.90
21666;DHT22;10994;45.486;9.190;2023-05-10T11:01:16;16.10;99.90
21666;DHT22;10994;45.486;9.190;2023-05-10T11:06:34;16.20;99.90
21666;DHT22;10994;45.486;9.190;2023-05-10T11:09:07;16.40;99.90
21666;DHT22;10994;45.486;9.190;2023-05-10T11:11:35;16.20;99.90
21666;DHT22;10994;45.486;9.190;2023-05-10T11:14:07;15.90;99.90
21666;DHT22;10994;45.486;9.190;2023-05-10T11:16:43;15.80;99.90
21666;DHT22;10994;45.486;9.190;2023-05-10T11:19:14;15.90;99.90
21666;DHT22;10994;45.486;9.190;2023-05-10T11:21:51;15.90;99.90
21666;DHT22;10994;45.486;9.190;2023-05-10T11:24:22;15.90;99.90
21666;DHT22;10994;45.486;9.190;2023-05-10T11:26:51;15.90;99.90
21666;DHT22;10994;45.486;9.190;2023-05-10T11:29:17;15.90;99.90
21666;DHT22;10994;45.486;9.190;2023-05-10T11:31:44;15.90;99.90
21666;DHT22;10994;45.486;9.190;2023-05-10T11:34:11;15.80;99.90
21666;DHT22;10994;45.486;9.190;2023-05-10T11:36:38;15.90;99.90
21666;DHT22;10994;45.486;9.190;2023-05-10T11:39:04;16.00;99.90
21666;DHT22;10994;45.486;9.190;2023-05-10T11:41:31;16.10;99.90
21666;DHT22;10994;45.486;9.190;2023-05-10T11:43:58;16.20;99.90
21666;DHT22;10994;45.486;9.190;2023-05-10T11:46:26;16.10;99.90
21666;DHT22;10994;45.486;9.190;2023-05-10T11:48:58;16.10;99.90
21666;DHT22;10994;45.486;9.190;2023-05-10T11:51:26;16.40;99.90
21666;DHT22;10994;45.486;9.190;2023-05-10T11:53:54;16.40;99.90
21666;DHT22;10994;45.486;9.190;2023-05-10T11:56:20;16.30;99.90
21666;DHT22;10994;45.486;9.190;2023-05-10T11:58:56;16.30;99.90
21666;DHT22;10994;45.486;9.190;2023-05-10T12:01:22;16.20;99.90
21666;DHT22;10994;45.486;9.190;2023-05-10T12:03:49;16.40;99.90
21666;DHT22;10994;45.486;9.190;2023-05-10T12:06:15;16.50;99.90
21666;DHT22;10994;45.486;9.190;2023-05-10T12:08:44;16.60;99.90
21666;DHT22;10994;45.486;9.190;2023-05-10T12:11:12;16.60;99.90
21666;DHT22;10994;45.486;9.190;2023-05-10T12:13:43;16.60;99.90
21666;DHT22;10994;45.486;9.190;2023-05-10T12:16:20;16.50;99.90
21666;DHT22;10994;45.486;9.190;2023-05-10T12:18:50;16.50;99.90
21666;DHT22;10994;45.486;9.190;2023-05-10T12:21:20;16.70;99.90
21666;DHT22;10994;45.486;9.190;2023-05-10T12:23:52;16.80;99.90
21666;DHT22;10994;45.486;9.190;2023-05-10T12:26:18;16.80;99.90
21666;DHT22;10994;45.486;9.190;2023-05-10T12:28:46;16.90;99.90
21666;DHT22;10994;45.486;9.190;2023-05-10T12:31:12;16.90;99.90
21666;DHT22;10994;45.486;9.190;2023-05-10T12:33:42;17.10;99.90
21666;DHT22;10994;45.486;9.190;2023-05-10T12:36:15;17.00;99.90
21666;DHT22;10994;45.486;9.190;2023-05-10T12:38:43;16.90;99.90
21666;DHT22;10994;45.486;9.190;2023-05-10T12:41:11;16.90;99.90
21666;DHT22;10994;45.486;9.190;2023-05-10T12:43:37;16.90;99.90
21666;DHT22;10994;45.486;9.190;2023-05-10T12:48:37;17.50;99.90
21666;DHT22;10994;45.486;9.190;2023-05-10T12:51:04;17.80;99.90
21666;DHT22;10994;45.486;9.190;2023-05-10T12:53:30;18.00;99.90
21666;DHT22;10994;45.486;9.190;2023-05-10T12:55:57;17.80;99.90
21666;DHT22;10994;45.486;9.190;2023-05-10T12:58:22;17.70;99.90
21666;DHT22;10994;45.486;9.190;2023-05-10T13:00:48;17.70;99.90
21666;DHT22;10994;45.486;9.190;2023-05-10T13:03:14;17.60;99.90
21666;DHT22;10994;45.486;9.190;2023-05-10T13:05:41;17.50;99.90
21666;DHT22;10994;45.486;9.190;2023-05-10T13:08:07;17.40;99.90
21666;DHT22;10994;45.486;9.190;2023-05-10T13:10:32;17.20;99.90
21666;DHT22;10994;45.486;9.190;2023-05-10T13:12:58;17.20;99.90
21666;DHT22;10994;45.486;9.190;2023-05-10T13:15:25;17.40;99.90
21666;DHT22;10994;45.486;9.190;2023-05-10T13:17:50;17.40;99.90
21666;DHT22;10994;45.486;9.190;2023-05-10T13:20:17;17.60;99.90
21666;DHT22;10994;45.486;9.190;2023-05-10T13:22:43;17.50;99.90
21666;DHT22;10994;45.486;9.190;2023-05-10T13:25:09;17.50;99.90
21666;DHT22;10994;45.486;9.190;2023-05-10T13:27:35;17.60;99.90
21666;DHT22;10994;45.486;9.190;2023-05-10T13:30:03;17.60;99.90
21666;DHT22;10994;45.486;9.190;2023-05-10T13:32:29;17.50;99.90
21666;DHT22;10994;45.486;9.190;2023-05-10T13:34:56;17.50;99.90
21666;DHT22;10994;45.486;9.190;2023-05-10T13:37:21;17.60;99.90
21666;DHT22;10994;45.486;9.190;2023-05-10T13:39:48;17.80;99.90
21666;DHT22;10994;45.486;9.190;2023-05-10T13:42:14;17.70;99.90
21666;DHT22;10994;45.486;9.190;2023-05-10T13:44:39;17.80;99.90
21666;DHT22;10994;45.486;9.190;2023-05-10T13:47:05;17.90;99.90
21666;DHT22;10994;45.486;9.190;2023-05-10T13:49:31;18.10;99.90
21666;DHT22;10994;45.486;9.190;2023-05-10T13:51:57;17.80;99.90
21666;DHT22;10994;45.486;9.190;2023-05-10T13:54:23;17.60;99.90
21666;DHT22;10994;45.486;9.190;2023-05-10T13:56:49;17.60;99.90
21666;DHT22;10994;45.486;9.190;2023-05-10T13:59:15;17.60;99.90
21666;DHT22;10994;45.486;9.190;2023-05-10T14:01:41;17.70;99.90
21666;DHT22;10994;45.486;9.190;2023-05-10T14:04:08;17.80;99.90
21666;DHT22;10994;45.486;9.190;2023-05-10T14:06:36;17.70;99.90
21666;DHT22;10994;45.486;9.190;2023-05-10T14:09:02;17.60;99.90
21666;DHT22;10994;45.486;9.190;2023-05-10T14:11:28;17.60;99.90
21666;DHT22;10994;45.486;9.190;2023-05-10T14:13:54;17.60;99.90
21666;DHT22;10994;45.486;9.190;2023-05-10T14:16:20;17.60;99.90
21666;DHT22;10994;45.486;9.190;2023-05-10T14:18:46;17.70;99.90
21666;DHT22;10994;45.486;9.190;2023-05-10T14:21:12;17.50;99.90
21666;DHT22;10994;45.486;9.190;2023-05-10T14:23:38;17.50;99.90
21666;DHT22;10994;45.486;9.190;2023-05-10T14:26:04;17.50;99.90
21666;DHT22;10994;45.486;9.190;2023-05-10T14:28:30;17.30;99.90
21666;DHT22;10994;45.486;9.190;2023-05-10T14:30:55;17.00;99.90
21666;DHT22;10994;45.486;9.190;2023-05-10T14:33:21;17.00;99.90
21666;DHT22;10994;45.486;9.190;2023-05-10T14:35:47;16.90;99.90
21666;DHT22;10994;45.486;9.190;2023-05-10T14:38:14;17.10;99.90
21666;DHT22;10994;45.486;9.190;2023-05-10T14:40:39;17.20;99.90
21666;DHT22;10994;45.486;9.190;2023-05-10T14:43:05;17.00;99.90
21666;DHT22;10994;45.486;9.190;2023-05-10T14:45:31;17.10;99.90
21666;DHT22;10994;45.486;9.190;2023-05-10T14:47:57;17.30;99.90
21666;DHT22;10994;45.486;9.190;2023-05-10T14:50:23;17.20;99.90
21666;DHT22;10994;45.486;9.190;2023-05-10T14:52:48;17.10;99.90
21666;DHT22;10994;45.486;9.190;2023-05-10T14:55:15;16.90;99.90
21666;DHT22;10994;45.486;9.190;2023-05-10T14:57:41;16.90;99.90
21666;DHT22;10994;45.486;9.190;2023-05-10T15:00:07;16.80;99.90
21666;DHT22;10994;45.486;9.190;2023-05-10T15:02:33;16.70;99.90
21666;DHT22;10994;45.486;9.190;2023-05-10T15:04:59;16.70;99.90
21666;DHT22;10994;45.486;9.190;2023-05-10T15:07:24;16.70;99.90
21666;DHT22;10994;45.486;9.190;2023-05-10T15:09:50;16.70;99.90
21666;DHT22;10994;45.486;9.190;2023-05-10T15:12:18;16.80;99.90
21666;DHT22;10994;45.486;9.190;2023-05-10T15:14:43;16.90;99.90
21666;DHT22;10994;45.486;9.190;2023-05-10T15:17:09;17.10;99.90
21666;DHT22;10994;45.486;9.190;2023-05-10T15:19:35;17.40;99.90
21666;DHT22;10994;45.486;9.190;2023-05-10T15:22:02;17.20;99.90
21666;DHT22;10994;45.486;9.190;2023-05-10T15:24:28;17.40;99.90
21666;DHT22;10994;45.486;9.190;2023-05-10T15:26:54;17.50;99.90
21666;DHT22;10994;45.486;9.190;2023-05-10T15:29:20;17.20;99.90
21666;DHT22;10994;45.486;9.190;2023-05-10T15:31:52;17.20;99.90
21666;DHT22;10994;45.486;9.190;2023-05-10T15:34:18;17.30;99.90
21666;DHT22;10994;45.486;9.190;2023-05-10T15:36:44;17.30;99.90
21666;DHT22;10994;45.486;9.190;2023-05-10T15:39:11;17.50;99.90
21666;DHT22;10994;45.486;9.190;2023-05-10T15:41:36;17.60;99.90
21666;DHT22;10994;45.486;9.190;2023-05-10T15:44:02;17.60;99.90
21666;DHT22;10994;45.486;9.190;2023-05-10T15:46:29;17.40;99.90
21666;DHT22;10994;45.486;9.190;2023-05-10T15:48:55;17.30;99.90
21666;DHT22;10994;45.486;9.190;2023-05-10T15:51:21;17.20;99.90
21666;DHT22;10994;45.486;9.190;2023-05-10T15:53:47;17.10;99.90
21666;DHT22;10994;45.486;9.190;2023-05-10T15:56:13;17.00;99.90
21666;DHT22;10994;45.486;9.190;2023-05-10T15:58:39;17.00;99.90
21666;DHT22;10994;45.486;9.190;2023-05-10T16:01:05;16.90;99.90
21666;DHT22;10994;45.486;9.190;2023-05-10T16:03:32;16.90;99.90
21666;DHT22;10994;45.486;9.190;2023-05-10T16:05:58;16.90;99.90
21666;DHT22;10994;45.486;9.190;2023-05-10T16:08:24;17.00;99.90
21666;DHT22;10994;45.486;9.190;2023-05-10T16:10:50;17.20;99.90
21666;DHT22;10994;45.486;9.190;2023-05-10T16:13:16;17.30;99.90
21666;DHT22;10994;45.486;9.190;2023-05-10T16:15:42;17.50;99.90
21666;DHT22;10994;45.486;9.190;2023-05-10T16:18:08;17.30;99.90
21666;DHT22;10994;45.486;9.190;2023-05-10T16:20:33;17.20;99.90
21666;DHT22;10994;45.486;9.190;2023-05-10T16:23:03;17.10;99.90
21666;DHT22;10994;45.486;9.190;2023-05-10T16:25:29;17.20;99.90
21666;DHT22;10994;45.486;9.190;2023-05-10T16:27:54;17.30;99.90
21666;DHT22;10994;45.486;9.190;2023-05-10T16:30:21;17.40;99.90
21666;DHT22;10994;45.486;9.190;2023-05-10T16:32:48;17.60;99.90
21666;DHT22;10994;45.486;9.190;2023-05-10T16:35:15;17.40;99.90
21666;DHT22;10994;45.486;9.190;2023-05-10T16:37:40;17.40;99.90
21666;DHT22;10994;45.486;9.190;2023-05-10T16:40:07;17.40;99.90
21666;DHT22;10994;45.486;9.190;2023-05-10T16:42:32;17.30;99.90
21666;DHT22;10994;45.486;9.190;2023-05-10T16:44:58;17.30;99.90
21666;DHT22;10994;45.486;9.190;2023-05-10T16:47:32;17.20;99.90
21666;DHT22;10994;45.486;9.190;2023-05-10T16:49:58;17.30;99.90
21666;DHT22;10994;45.486;9.190;2023-05-10T16:52:23;17.20;99.90
21666;DHT22;10994;45.486;9.190;2023-05-10T16:54:49;17.20;99.90
21666;DHT22;10994;45.486;9.190;2023-05-10T16:57:16;17.30;99.90
21666;DHT22;10994;45.486;9.190;2023-05-10T16:59:42;17.30;99.90
21666;DHT22;10994;45.486;9.190;2023-05-10T17:02:07;17.50;99.90
21666;DHT22;10994;45.486;9.190;2023-05-10T17:04:34;17.50;99.90
21666;DHT22;10994;45.486;9.190;2023-05-10T17:06:59;17.70;99.90
21666;DHT22;10994;45.486;9.190;2023-05-10T17:09:25;17.90;99.90
21666;DHT22;10994;45.486;9.190;2023-05-10T17:11:51;18.00;99.90
21666;DHT22;10994;45.486;9.190;2023-05-10T17:14:16;18.40;99.90
21666;DHT22;10994;45.486;9.190;2023-05-10T17:16:42;18.80;99.90
21666;DHT22;10994;45.486;9.190;2023-05-10T17:19:08;18.60;99.90
21666;DHT22;10994;45.486;9.190;2023-05-10T17:21:35;18.20;99.90
21666;DHT22;10994;45.486;9.190;2023-05-10T17:24:01;18.00;99.90
21666;DHT22;10994;45.486;9.190;2023-05-10T17:26:27;17.70;99.90
21666;DHT22;10994;45.486;9.190;2023-05-10T17:28:54;17.70;99.90
21666;DHT22;10994;45.486;9.190;2023-05-10T17:31:20;17.70;99.90
21666;DHT22;10994;45.486;9.190;2023-05-10T17:33:46;17.80;99.90
21666;DHT22;10994;45.486;9.190;2023-05-10T17:36:11;17.90;99.90
21666;DHT22;10994;45.486;9.190;2023-05-10T17:38:37;18.00;99.90
21666;DHT22;10994;45.486;9.190;2023-05-10T17:41:03;18.00;99.90
21666;DHT22;10994;45.486;9.190;2023-05-10T17:43:28;17.90;99.90
21666;DHT22;10994;45.486;9.190;2023-05-10T17:45:54;17.90;99.90
21666;DHT22;10994;45.486;9.190;2023-05-10T17:48:20;17.90;99.90
21666;DHT22;10994;45.486;9.190;2023-05-10T17:50:51;17.60;99.90
21666;DHT22;10994;45.486;9.190;2023-05-10T17:53:17;17.50;99.90
21666;DHT22;10994;45.486;9.190;2023-05-10T17:55:43;17.30;99.90
21666;DHT22;10994;45.486;9.190;2023-05-10T17:58:10;17.20;99.90
21666;DHT22;10994;45.486;9.190;2023-05-10T18:00:37;17.30;99.90
21666;DHT22;10994;45.486;9.190;2023-05-10T18:03:04;17.30;99.90
21666;DHT22;10994;45.486;9.190;2023-05-10T18:05:34;17.20;99.90
21666;DHT22;10994;45.486;9.190;2023-05-10T18:08:02;17.20;99.90
21666;DHT22;10994;45.486;9.190;2023-05-10T18:10:28;17.20;99.90
21666;DHT22;10994;45.486;9.190;2023-05-10T18:12:54;17.10;99.90
21666;DHT22;10994;45.486;9.190;2023-05-10T18:15:20;17.00;99.90
21666;DHT22;10994;45.486;9.190;2023-05-10T18:17:46;17.00;99.90
21666;DHT22;10994;45.486;9.190;2023-05-10T18:20:13;17.00;99.90
21666;DHT22;10994;45.486;9.190;2023-05-10T18:22:40;16.90;99.90
21666;DHT22;10994;45.486;9.190;2023-05-10T18:25:06;17.00;99.90
21666;DHT22;10994;45.486;9.190;2023-05-10T18:27:32;16.90;99.90
21666;DHT22;10994;45.486;9.190;2023-05-10T18:29:57;16.90;99.90
21666;DHT22;10994;45.486;9.190;2023-05-10T18:32:23;16.90;99.90
21666;DHT22;10994;45.486;9.190;2023-05-10T18:34:49;17.00;99.90
21666;DHT22;10994;45.486;9.190;2023-05-10T18:37:14;17.10;99.90
21666;DHT22;10994;45.486;9.190;2023-05-10T18:39:40;17.20;99.90
21666;DHT22;10994;45.486;9.190;2023-05-10T18:42:07;17.20;99.90
21666;DHT22;10994;45.486;9.190;2023-05-10T18:44:33;17.20;99.90
21666;DHT22;10994;45.486;9.190;2023-05-10T18:46:58;17.10;99.90
21666;DHT22;10994;45.486;9.190;2023-05-10T18:49:24;17.10;99.90
21666;DHT22;10994;45.486;9.190;2023-05-10T18:51:51;16.90;99.90
21666;DHT22;10994;45.486;9.190;2023-05-10T18:54:16;17.00;99.90
21666;DHT22;10994;45.486;9.190;2023-05-10T18:56:42;16.90;99.90
21666;DHT22;10994;45.486;9.190;2023-05-10T18:59:10;16.80;99.90
21666;DHT22;10994;45.486;9.190;2023-05-10T19:01:36;16.90;99.90
21666;DHT22;10994;45.486;9.190;2023-05-10T19:04:03;17.00;99.90
21666;DHT22;10994;45.486;9.190;2023-05-10T19:06:28;17.00;99.90
21666;DHT22;10994;45.486;9.190;2023-05-10T19:08:54;17.20;99.90
21666;DHT22;10994;45.486;9.190;2023-05-10T19:11:20;17.20;99.90
21666;DHT22;10994;45.486;9.190;2023-05-10T19:13:46;17.20;99.90
21666;DHT22;10994;45.486;9.190;2023-05-10T19:16:14;17.10;99.90
21666;DHT22;10994;45.486;9.190;2023-05-10T19:18:41;17.10;99.90
21666;DHT22;10994;45.486;9.190;2023-05-10T19:21:07;17.30;99.90
21666;DHT22;10994;45.486;9.190;2023-05-10T19:23:36;17.40;99.90
21666;DHT22;10994;45.486;9.190;2023-05-10T19:26:03;17.60;99.90
21666;DHT22;10994;45.486;9.190;2023-05-10T19:28:29;17.60;99.90
21666;DHT22;10994;45.486;9.190;2023-05-10T19:30:58;17.70;99.90
21666;DHT22;10994;45.486;9.190;2023-05-10T19:33:24;17.80;99.90
21666;DHT22;10994;45.486;9.190;2023-05-10T19:35:49;17.80;99.90
21666;DHT22;10994;45.486;9.190;2023-05-10T19:38:21;17.40;99.90
21666;DHT22;10994;45.486;9.190;2023-05-10T19:40:49;17.30;99.90
21666;DHT22;10994;45.486;9.190;2023-05-10T19:43:15;17.20;99.90
21666;DHT22;10994;45.486;9.190;2023-05-10T19:45:41;17.00;99.90
21666;DHT22;10994;45.486;9.190;2023-05-10T19:48:07;17.00;99.90
21666;DHT22;10994;45.486;9.190;2023-05-10T19:50:32;17.00;99.90
21666;DHT22;10994;45.486;9.190;2023-05-10T19:52:58;17.20;99.90
21666;DHT22;10994;45.486;9.190;2023-05-10T19:55:27;17.30;99.90
21666;DHT22;10994;45.486;9.190;2023-05-10T19:57:53;17.30;99.90
21666;DHT22;10994;45.486;9.190;2023-05-10T20:00:27;17.20;99.90
21666;DHT22;10994;45.486;9.190;2023-05-10T20:02:54;17.20;99.90
21666;DHT22;10994;45.486;9.190;2023-05-10T20:05:20;17.20;99.90
21666;DHT22;10994;45.486;9.190;2023-05-10T20:07:46;17.30;99.90
21666;DHT22;10994;45.486;9.190;2023-05-10T20:10:12;17.40;99.90
21666;DHT22;10994;45.486;9.190;2023-05-10T20:12:38;17.50;99.90
21666;DHT22;10994;45.486;9.190;2023-05-10T20:15:06;17.70;99.90
21666;DHT22;10994;45.486;9.190;2023-05-10T20:17:33;17.70;99.90
21666;DHT22;10994;45.486;9.190;2023-05-10T20:20:00;17.70;99.90
21666;DHT22;10994;45.486;9.190;2023-05-10T20:22:26;17.50;99.90
21666;DHT22;10994;45.486;9.190;2023-05-10T20:24:51;17.50;99.90
21666;DHT22;10994;45.486;9.190;2023-05-10T20:27:17;17.30;99.90
21666;DHT22;10994;45.486;9.190;2023-05-10T20:29:45;17.10;99.90
21666;DHT22;10994;45.486;9.190;2023-05-10T20:32:11;17.00;99.90
21666;DHT22;10994;45.486;9.190;2023-05-10T20:34:36;17.00;99.90
21666;DHT22;10994;45.486;9.190;2023-05-10T20:37:02;17.00;99.90
21666;DHT22;10994;45.486;9.190;2023-05-10T20:39:28;17.10;99.90
21666;DHT22;10994;45.486;9.190;2023-05-10T20:41:54;16.90;99.90
21666;DHT22;10994;45.486;9.190;2023-05-10T20:44:20;16.80;99.90
21666;DHT22;10994;45.486;9.190;2023-05-10T20:46:45;16.80;99.90
21666;DHT22;10994;45.486;9.190;2023-05-10T20:49:11;16.60;99.90
21666;DHT22;10994;45.486;9.190;2023-05-10T20:51:37;16.80;99.90
21666;DHT22;10994;45.486;9.190;2023-05-10T20:54:02;16.90;99.90
21666;DHT22;10994;45.486;9.190;2023-05-10T20:56:29;16.80;99.90
21666;DHT22;10994;45.486;9.190;2023-05-10T20:58:55;16.60;99.90
21666;DHT22;10994;45.486;9.190;2023-05-10T21:01:21;16.70;99.90
21666;DHT22;10994;45.486;9.190;2023-05-10T21:03:47;16.80;99.90
21666;DHT22;10994;45.486;9.190;2023-05-10T21:06:12;16.80;99.90
21666;DHT22;10994;45.486;9.190;2023-05-10T21:08:38;17.00;99.90
21666;DHT22;10994;45.486;9.190;2023-05-10T21:11:04;17.10;99.90
21666;DHT22;10994;45.486;9.190;2023-05-10T21:13:30;17.10;99.90
21666;DHT22;10994;45.486;9.190;2023-05-10T21:15:59;17.00;99.90
21666;DHT22;10994;45.486;9.190;2023-05-10T21:18:25;17.00;99.90
21666;DHT22;10994;45.486;9.190;2023-05-10T21:20:51;17.00;99.90
21666;DHT22;10994;45.486;9.190;2023-05-10T21:23:16;17.00;99.90
21666;DHT22;10994;45.486;9.190;2023-05-10T21:25:42;17.00;99.90
21666;DHT22;10994;45.486;9.190;2023-05-10T21:28:08;17.10;99.90
21666;DHT22;10994;45.486;9.190;2023-05-10T21:30:34;17.20;99.90
21666;DHT22;10994;45.486;9.190;2023-05-10T21:32:59;17.20;99.90
21666;DHT22;10994;45.486;9.190;2023-05-10T21:35:28;17.20;99.90
21666;DHT22;10994;45.486;9.190;2023-05-10T21:37:54;17.20;99.90
21666;DHT22;10994;45.486;9.190;2023-05-10T21:40:19;17.20;99.90
21666;DHT22;10994;45.486;9.190;2023-05-10T21:42:45;17.20;99.90
21666;DHT22;10994;45.486;9.190;2023-05-10T21:45:16;17.20;99.90
21666;DHT22;10994;45.486;9.190;2023-05-10T21:47:42;17.30;99.90
21666;DHT22;10994;45.486;9.190;2023-05-10T21:50:09;17.30;99.90
21666;DHT22;10994;45.486;9.190;2023-05-10T21:52:35;17.30;99.90
21666;DHT22;10994;45.486;9.190;2023-05-10T21:55:01;17.30;99.90
21666;DHT22;10994;45.486;9.190;2023-05-10T21:57:29;17.40;99.90
21666;DHT22;10994;45.486;9.190;2023-05-10T21:59:55;17.40;99.90
21666;DHT22;10994;45.486;9.190;2023-05-10T22:02:21;17.40;99.90
21666;DHT22;10994;45.486;9.190;2023-05-10T22:04:47;17.40;99.90
21666;DHT22;10994;45.486;9.190;2023-05-10T22:07:12;17.30;99.90
21666;DHT22;10994;45.486;9.190;2023-05-10T22:09:41;17.40;99.90
21666;DHT22;10994;45.486;9.190;2023-05-10T22:12:07;17.40;99.90
21666;DHT22;10994;45.486;9.190;2023-05-10T22:14:33;17.40;99.90
21666;DHT22;10994;45.486;9.190;2023-05-10T22:16:59;17.30;99.90
21666;DHT22;10994;45.486;9.190;2023-05-10T22:19:25;17.30;99.90
21666;DHT22;10994;45.486;9.190;2023-05-10T22:21:51;17.30;99.90
21666;DHT22;10994;45.486;9.190;2023-05-10T22:24:17;17.30;99.90
21666;DHT22;10994;45.486;9.190;2023-05-10T22:26:43;17.30;99.90
21666;DHT22;10994;45.486;9.190;2023-05-10T22:29:09;17.20;99.90
21666;DHT22;10994;45.486;9.190;2023-05-10T22:31:34;17.20;99.90
21666;DHT22;10994;45.486;9.190;2023-05-10T22:34:00;17.00;99.90
21666;DHT22;10994;45.486;9.190;2023-05-10T22:36:26;17.00;99.90
21666;DHT22;10994;45.486;9.190;2023-05-10T22:38:51;16.90;99.90
21666;DHT22;10994;45.486;9.190;2023-05-10T22:41:17;16.80;99.90
21666;DHT22;10994;45.486;9.190;2023-05-10T22:43:43;16.80;99.90
21666;DHT22;10994;45.486;9.190;2023-05-10T22:46:09;16.80;99.90
21666;DHT22;10994;45.486;9.190;2023-05-10T22:48:34;16.80;99.90
21666;DHT22;10994;45.486;9.190;2023-05-10T22:51:00;16.80;99.90
21666;DHT22;10994;45.486;9.190;2023-05-10T22:53:26;16.70;99.90
21666;DHT22;10994;45.486;9.190;2023-05-10T22:55:52;16.40;99.90
21666;DHT22;10994;45.486;9.190;2023-05-10T22:58:17;16.40;99.90
21666;DHT22;10994;45.486;9.190;2023-05-10T23:00:43;16.50;99.90
21666;DHT22;10994;45.486;9.190;2023-05-10T23:03:09;16.40;99.90
21666;DHT22;10994;45.486;9.190;2023-05-10T23:05:34;16.50;99.90
21666;DHT22;10994;45.486;9.190;2023-05-10T23:08:00;16.40;99.90
21666;DHT22;10994;45.486;9.190;2023-05-10T23:10:26;16.40;99.90
21666;DHT22;10994;45.486;9.190;2023-05-10T23:12:51;16.30;99.90
21666;DHT22;10994;45.486;9.190;2023-05-10T23:15:17;16.30;99.90
21666;DHT22;10994;45.486;9.190;2023-05-10T23:17:43;16.40;99.90
21666;DHT22;10994;45.486;9.190;2023-05-10T23:20:09;16.40;99.90
21666;DHT22;10994;45.486;9.190;2023-05-10T23:22:35;16.40;99.90
21666;DHT22;10994;45.486;9.190;2023-05-10T23:25:00;16.50;99.90
21666;DHT22;10994;45.486;9.190;2023-05-10T23:27:29;16.40;99.90
21666;DHT22;10994;45.486;9.190;2023-05-10T23:29:55;16.30;99.90
21666;DHT22;10994;45.486;9.190;2023-05-10T23:32:22;16.30;99.90
21666;DHT22;10994;45.486;9.190;2023-05-10T23:34:47;16.20;99.90
21666;DHT22;10994;45.486;9.190;2023-05-10T23:37:13;16.30;99.90
21666;DHT22;10994;45.486;9.190;2023-05-10T23:39:39;16.20;99.90
21666;DHT22;10994;45.486;9.190;2023-05-10T23:42:05;16.30;99.90
21666;DHT22;10994;45.486;9.190;2023-05-10T23:44:31;16.30;99.90
21666;DHT22;10994;45.486;9.190;2023-05-10T23:46:57;16.30;99.90
21666;DHT22;10994;45.486;9.190;2023-05-10T23:49:22;16.30;99.90